Time;durP1;ratioP1;P1;durP2;ratioP2;P2;SDS_P1;SDS_P2;PMS_P1;PMS_P2;Temp;Humidity;BMP_temperature;BMP_pressure;BME280_temperature;BME280_humidity;BME280_pressure;Samples;Min_cycle;Max_cycle;Signal;HPM_P1;HPM_P2
2022/03/06 00:02:23;;;;;;;;;;;2.40;73.60;;;;;;5023089;28;20132;-69
2022/03/06 00:04:48;;;;;;;;;;;2.50;73.50;;;;;;5024164;28;19916;-69
2022/03/06 00:07:14;;;;;;;;;;;2.50;73.50;;;;;;5005907;28;19941;-69
2022/03/06 00:09:40;;;;;;;;;;;2.50;73.30;;;;;;5022902;28;20231;-70
2022/03/06 00:12:06;;;;;;;;;;;2.50;73.70;;;;;;5005427;28;19920;-70
2022/03/06 00:14:31;;;;;;;;;;;2.40;74.00;;;;;;5023225;28;19913;-70
2022/03/06 00:16:57;;;;;;;;;;;2.50;73.70;;;;;;5023219;28;19916;-70
2022/03/06 00:19:23;;;;;;;;;;;2.40;73.90;;;;;;5005553;28;19913;-69
2022/03/06 00:21:48;;;;;;;;;;;2.40;73.70;;;;;;5022781;28;20106;-70
2022/03/06 00:24:14;;;;;;;;;;;2.40;74.00;;;;;;5005385;28;19960;-70
2022/03/06 00:26:40;;;;;;;;;;;2.30;74.20;;;;;;5023123;28;19910;-70
2022/03/06 00:29:06;;;;;;;;;;;2.30;74.30;;;;;;5023101;28;19972;-70
2022/03/06 00:31:31;;;;;;;;;;;2.30;74.80;;;;;;5022598;28;19910;-70
2022/03/06 00:33:57;;;;;;;;;;;2.20;74.80;;;;;;5022816;28;19913;-69
2022/03/06 00:36:23;;;;;;;;;;;2.20;73.90;;;;;;5022932;28;19910;-70
2022/03/06 00:38:48;;;;;;;;;;;2.30;73.60;;;;;;5021956;28;20286;-70
2022/03/06 00:41:14;;;;;;;;;;;2.30;73.50;;;;;;5022643;28;19909;-70
2022/03/06 00:43:40;;;;;;;;;;;2.30;72.90;;;;;;5005552;28;19910;-70
2022/03/06 00:46:06;;;;;;;;;;;2.30;73.30;;;;;;5005489;28;19963;-70
2022/03/06 00:48:32;;;;;;;;;;;2.30;73.60;;;;;;5022738;28;19909;-70
2022/03/06 00:50:57;;;;;;;;;;;2.30;73.00;;;;;;5022594;28;19914;-69
2022/03/06 00:53:23;;;;;;;;;;;2.20;73.20;;;;;;5005455;28;19916;-70
2022/03/06 00:55:49;;;;;;;;;;;2.20;73.10;;;;;;5021882;28;19913;-71
2022/03/06 00:58:15;;;;;;;;;;;2.20;72.90;;;;;;5005374;28;19947;-71
2022/03/06 01:00:42;;;;;;;;;;;2.20;73.30;;;;;;5004947;28;20201;-71
2022/03/06 01:03:18;;;;;;;;;;;2.20;73.10;;;;;;5022507;28;19910;-71
2022/03/06 01:05:44;;;;;;;;;;;2.10;73.20;;;;;;5022097;28;19913;-69
2022/03/06 01:08:10;;;;;;;;;;;2.20;73.10;;;;;;5022501;28;20000;-69
2022/03/06 01:10:37;;;;;;;;;;;2.10;73.30;;;;;;5021286;28;19988;-69
2022/03/06 01:13:03;;;;;;;;;;;2.00;73.50;;;;;;5021586;28;19909;-69
2022/03/06 01:15:29;;;;;;;;;;;1.90;74.00;;;;;;5022615;28;19917;-70
2022/03/06 01:17:55;;;;;;;;;;;1.80;74.40;;;;;;5022700;28;19956;-69
2022/03/06 01:20:20;;;;;;;;;;;1.80;75.00;;;;;;5022204;28;19909;-69
2022/03/06 01:22:46;;;;;;;;;;;1.70;75.10;;;;;;5024538;28;19972;-69
2022/03/06 01:25:12;;;;;;;;;;;1.70;75.20;;;;;;5026295;28;20228;-68
2022/03/06 01:27:38;;;;;;;;;;;1.70;75.40;;;;;;5025247;28;19909;-69
2022/03/06 01:30:05;;;;;;;;;;;1.70;75.50;;;;;;5026254;28;19917;-69
2022/03/06 01:32:32;;;;;;;;;;;1.60;75.80;;;;;;5025950;28;19909;-70
2022/03/06 01:34:58;;;;;;;;;;;1.60;75.90;;;;;;5025747;28;19980;-70
2022/03/06 01:37:23;;;;;;;;;;;1.60;75.90;;;;;;5026125;28;19942;-70
2022/03/06 01:39:49;;;;;;;;;;;1.50;76.30;;;;;;5026192;28;19909;-70
2022/03/06 01:42:15;;;;;;;;;;;1.50;76.60;;;;;;5008196;28;19944;-69
2022/03/06 01:44:44;;;;;;;;;;;1.50;76.70;;;;;;5025945;28;20116;-70
2022/03/06 01:47:10;;;;;;;;;;;1.30;77.10;;;;;;5008694;28;19910;-70
2022/03/06 01:49:35;;;;;;;;;;;1.20;77.50;;;;;;5025664;28;20161;-70
2022/03/06 01:52:01;;;;;;;;;;;1.20;77.80;;;;;;5025465;28;19977;-70
2022/03/06 01:54:27;;;;;;;;;;;1.20;78.00;;;;;;5025811;28;20204;-69
2022/03/06 01:56:53;;;;;;;;;;;1.10;78.20;;;;;;5025850;28;19917;-67
2022/03/06 01:59:18;;;;;;;;;;;1.00;78.40;;;;;;5008248;28;19909;-70
2022/03/06 02:01:44;;;;;;;;;;;1.00;78.60;;;;;;5006252;28;19917;-70
2022/03/06 02:04:10;;;;;;;;;;;0.90;78.90;;;;;;5023421;28;19909;-70
2022/03/06 02:06:37;;;;;;;;;;;0.80;79.30;;;;;;5008133;28;20205;-71
2022/03/06 02:09:03;;;;;;;;;;;0.80;79.30;;;;;;5040824;28;20116;-70
2022/03/06 02:11:29;;;;;;;;;;;0.80;79.60;;;;;;5024837;28;19921;-70
2022/03/06 02:13:54;;;;;;;;;;;0.70;79.80;;;;;;5023008;28;20176;-68
2022/03/06 02:16:20;;;;;;;;;;;0.70;80.00;;;;;;5038506;28;19910;-71
2022/03/06 02:18:46;;;;;;;;;;;0.70;80.30;;;;;;5025439;28;19933;-70
2022/03/06 02:21:12;;;;;;;;;;;0.60;80.60;;;;;;5040506;28;19925;-70
2022/03/06 02:23:38;;;;;;;;;;;0.60;80.60;;;;;;5025334;28;19916;-70
2022/03/06 02:26:05;;;;;;;;;;;0.50;81.00;;;;;;5040682;28;19941;-70
2022/03/06 02:28:30;;;;;;;;;;;0.50;81.10;;;;;;5040616;28;20197;-70
2022/03/06 02:30:56;;;;;;;;;;;0.50;81.50;;;;;;5024882;28;19909;-70
2022/03/06 02:33:22;;;;;;;;;;;0.40;81.40;;;;;;5024606;28;19917;-69
2022/03/06 02:35:48;;;;;;;;;;;0.40;81.60;;;;;;5024745;28;20232;-71
2022/03/06 02:38:13;;;;;;;;;;;0.40;81.90;;;;;;5025063;28;20116;-69
2022/03/06 02:40:42;;;;;;;;;;;0.40;81.90;;;;;;5024655;28;20218;-69
2022/03/06 02:43:08;;;;;;;;;;;0.30;82.10;;;;;;5007987;28;20116;-69
2022/03/06 02:45:34;;;;;;;;;;;0.30;82.50;;;;;;5007399;28;19909;-70
2022/03/06 02:48:00;;;;;;;;;;;0.20;82.60;;;;;;5023644;28;19916;-70
2022/03/06 02:50:27;;;;;;;;;;;0.20;82.70;;;;;;5024508;28;19909;-69
2022/03/06 02:52:53;;;;;;;;;;;0.20;82.70;;;;;;5024457;28;19916;-69
2022/03/06 02:55:19;;;;;;;;;;;0.20;83.00;;;;;;5024842;28;19913;-70
2022/03/06 02:57:45;;;;;;;;;;;0.20;83.00;;;;;;5024613;28;19916;-70
2022/03/06 03:00:12;;;;;;;;;;;0.20;83.00;;;;;;5006489;28;19983;-70
2022/03/06 03:02:38;;;;;;;;;;;0.20;83.40;;;;;;5005765;28;19948;-69
2022/03/06 03:05:05;;;;;;;;;;;0.20;83.40;;;;;;5022073;28;20236;-70
2022/03/06 03:07:31;;;;;;;;;;;0.10;83.40;;;;;;5005929;28;20236;-70
2022/03/06 03:09:56;;;;;;;;;;;0.10;83.50;;;;;;5023004;28;19916;-69
2022/03/06 03:12:22;;;;;;;;;;;0.10;83.70;;;;;;5075931;22;20279;-70
2022/03/06 03:14:48;;;;;;;;;;;0.10;83.80;;;;;;5063855;28;19920;-70
2022/03/06 03:17:13;;;;;;;;;;;0.10;83.90;;;;;;5063905;28;19908;-70
2022/03/06 03:19:39;;;;;;;;;;;0.10;84.00;;;;;;5064003;28;19912;-70
2022/03/06 03:22:05;;;;;;;;;;;0.10;84.10;;;;;;5063708;28;19908;-70
2022/03/06 03:24:30;;;;;;;;;;;0.00;84.40;;;;;;5063776;28;19948;-70
2022/03/06 03:26:56;;;;;;;;;;;0.00;84.50;;;;;;5063435;28;19944;-69
2022/03/06 03:29:22;;;;;;;;;;;0.00;84.90;;;;;;5062671;28;19909;-70
2022/03/06 03:31:48;;;;;;;;;;;0.00;85.10;;;;;;5063334;28;19908;-70
2022/03/06 03:34:13;;;;;;;;;;;0.00;85.40;;;;;;5058913;28;20002;-71
2022/03/06 03:36:40;;;;;;;;;;;0.00;85.60;;;;;;5062506;28;19931;-71
2022/03/06 03:39:05;;;;;;;;;;;0.00;85.50;;;;;;5063636;28;19955;-71
2022/03/06 03:41:31;;;;;;;;;;;-0.10;85.50;;;;;;5062863;28;19976;-70
2022/03/06 03:43:57;;;;;;;;;;;-0.10;85.70;;;;;;5063256;28;19916;-70
2022/03/06 03:46:22;;;;;;;;;;;-0.10;85.80;;;;;;5040822;28;19909;-70
2022/03/06 03:48:48;;;;;;;;;;;-0.10;86.00;;;;;;5063345;28;19912;-69
2022/03/06 03:51:14;;;;;;;;;;;-0.10;86.00;;;;;;5063067;28;20219;-70
2022/03/06 03:53:40;;;;;;;;;;;-0.10;85.80;;;;;;5063289;28;19913;-70
2022/03/06 03:56:05;;;;;;;;;;;-0.10;85.80;;;;;;5062004;28;19912;-70
2022/03/06 03:58:32;;;;;;;;;;;0.00;85.90;;;;;;5063204;28;19976;-70
2022/03/06 04:00:57;;;;;;;;;;;0.00;85.70;;;;;;5063061;28;19916;-70
2022/03/06 04:03:23;;;;;;;;;;;0.00;85.80;;;;;;5063184;28;20207;-70
2022/03/06 04:05:49;;;;;;;;;;;0.00;85.70;;;;;;5038629;28;19974;-70
2022/03/06 04:08:15;;;;;;;;;;;0.00;85.50;;;;;;5063188;28;19909;-70
2022/03/06 04:10:40;;;;;;;;;;;0.10;85.40;;;;;;5062480;28;19908;-70
2022/03/06 04:13:06;;;;;;;;;;;0.10;85.40;;;;;;5045063;28;20222;-70
2022/03/06 04:15:32;;;;;;;;;;;0.10;85.30;;;;;;5028819;28;19914;-70
2022/03/06 04:17:57;;;;;;;;;;;0.10;85.50;;;;;;5063047;28;19931;-70
2022/03/06 04:20:23;;;;;;;;;;;0.00;85.60;;;;;;5062868;28;19935;-70
2022/03/06 04:22:49;;;;;;;;;;;0.00;85.70;;;;;;5044869;28;19915;-70
2022/03/06 04:25:15;;;;;;;;;;;0.10;85.60;;;;;;5045112;28;19909;-70
2022/03/06 04:27:40;;;;;;;;;;;0.10;85.60;;;;;;5044888;28;19908;-70
2022/03/06 04:30:06;;;;;;;;;;;0.10;85.70;;;;;;5062996;28;19966;-71
2022/03/06 04:32:32;;;;;;;;;;;0.10;85.80;;;;;;5044735;28;19909;-71
2022/03/06 04:34:58;;;;;;;;;;;0.20;85.80;;;;;;5062818;28;19920;-70
2022/03/06 04:37:24;;;;;;;;;;;0.20;85.80;;;;;;5062718;28;19916;-71
2022/03/06 04:39:49;;;;;;;;;;;0.30;85.70;;;;;;5062830;28;20191;-71
2022/03/06 04:42:15;;;;;;;;;;;0.30;85.40;;;;;;5044371;28;19975;-70
2022/03/06 04:44:41;;;;;;;;;;;0.30;85.10;;;;;;5062742;28;19967;-70
2022/03/06 04:47:07;;;;;;;;;;;0.40;84.90;;;;;;5062680;28;20120;-70
2022/03/06 04:49:32;;;;;;;;;;;0.40;85.10;;;;;;5062091;28;19908;-70
2022/03/06 04:51:58;;;;;;;;;;;0.40;84.90;;;;;;5062241;28;19909;-70
2022/03/06 04:54:25;;;;;;;;;;;0.40;84.60;;;;;;5062595;28;20169;-70
2022/03/06 04:56:51;;;;;;;;;;;0.50;84.30;;;;;;5064820;28;20084;-71
2022/03/06 04:59:17;;;;;;;;;;;0.50;84.30;;;;;;5048998;28;19923;-71
2022/03/06 05:01:42;;;;;;;;;;;0.50;84.00;;;;;;5048605;28;19909;-71
2022/03/06 05:04:09;;;;;;;;;;;0.40;83.90;;;;;;5066478;28;20149;-71
2022/03/06 05:06:34;;;;;;;;;;;0.40;84.20;;;;;;5047769;28;19913;-71
2022/03/06 05:09:00;;;;;;;;;;;0.40;84.30;;;;;;5032221;28;19916;-70
2022/03/06 05:11:26;;;;;;;;;;;0.30;84.60;;;;;;5065935;28;19979;-70
2022/03/06 05:13:52;;;;;;;;;;;0.30;84.60;;;;;;5048758;28;20163;-69
2022/03/06 05:16:17;;;;;;;;;;;0.30;84.80;;;;;;5066440;28;19916;-70
2022/03/06 05:18:43;;;;;;;;;;;0.20;85.20;;;;;;5066330;28;19908;-70
2022/03/06 05:21:09;;;;;;;;;;;0.20;85.30;;;;;;5048079;28;20107;-70
2022/03/06 05:23:34;;;;;;;;;;;0.20;85.20;;;;;;5066246;28;19913;-70
2022/03/06 05:26:00;;;;;;;;;;;0.20;85.10;;;;;;5048422;28;19916;-70
2022/03/06 05:28:27;;;;;;;;;;;0.20;85.40;;;;;;5048466;28;19909;-70
2022/03/06 05:30:53;;;;;;;;;;;0.20;85.70;;;;;;5048318;28;19986;-70
2022/03/06 05:33:19;;;;;;;;;;;0.10;85.60;;;;;;5048409;28;20223;-69
2022/03/06 05:35:46;;;;;;;;;;;0.10;86.00;;;;;;5065782;28;19912;-70
2022/03/06 05:38:12;;;;;;;;;;;0.10;86.30;;;;;;5048354;28;19909;-70
2022/03/06 05:40:37;;;;;;;;;;;0.00;86.40;;;;;;5065507;28;20268;-70
2022/03/06 05:43:03;;;;;;;;;;;0.00;86.60;;;;;;5065934;28;19936;-70
2022/03/06 05:45:29;;;;;;;;;;;0.00;86.50;;;;;;5066293;28;19909;-70
2022/03/06 05:47:54;;;;;;;;;;;0.00;86.90;;;;;;5048753;28;19923;-70
2022/03/06 05:50:20;;;;;;;;;;;0.00;87.00;;;;;;5048286;28;20004;-69
2022/03/06 05:52:48;;;;;;;;;;;0.00;87.00;;;;;;5065466;28;19916;-69
2022/03/06 05:55:14;;;;;;;;;;;0.10;87.00;;;;;;5068482;28;19920;-70
2022/03/06 05:57:40;;;;;;;;;;;0.00;87.00;;;;;;5034991;28;20162;-70
2022/03/06 06:00:08;;;;;;;;;;;0.00;87.20;;;;;;5068665;28;19909;-70
2022/03/06 06:02:35;;;;;;;;;;;0.00;87.20;;;;;;5034756;28;19909;-70
2022/03/06 06:05:03;;;;;;;;;;;-0.10;87.40;;;;;;5032510;28;19909;-69
2022/03/06 06:07:29;;;;;;;;;;;-0.10;87.70;;;;;;5065094;28;19912;-69
2022/03/06 06:09:54;;;;;;;;;;;-0.10;87.90;;;;;;5067526;28;20258;-69
2022/03/06 06:12:20;;;;;;;;;;;-0.10;87.70;;;;;;5068417;28;19920;-70
2022/03/06 06:14:46;;;;;;;;;;;-0.10;87.80;;;;;;5067239;28;19935;-72
2022/03/06 06:17:11;;;;;;;;;;;-0.10;87.70;;;;;;5065609;28;20172;-71
2022/03/06 06:19:37;;;;;;;;;;;-0.10;87.60;;;;;;5065409;28;19923;-68
2022/03/06 06:22:03;;;;;;;;;;;0.00;87.60;;;;;;5049629;28;19919;-70
2022/03/06 06:24:29;;;;;;;;;;;0.00;87.50;;;;;;5057844;28;19913;-70
2022/03/06 06:26:55;;;;;;;;;;;0.00;87.20;;;;;;5065158;28;20156;-70
2022/03/06 06:29:21;;;;;;;;;;;0.10;87.20;;;;;;5059363;28;19913;-70
2022/03/06 06:31:47;;;;;;;;;;;0.00;87.30;;;;;;5063178;28;19908;-70
2022/03/06 06:34:13;;;;;;;;;;;0.10;87.20;;;;;;5064836;28;19935;-70
2022/03/06 06:36:39;;;;;;;;;;;0.10;87.10;;;;;;5064516;28;19909;-70
2022/03/06 06:39:05;;;;;;;;;;;0.10;86.90;;;;;;5046941;28;20107;-69
2022/03/06 06:41:30;;;;;;;;;;;0.20;86.60;;;;;;5064436;28;19915;-70
2022/03/06 06:43:56;;;;;;;;;;;0.20;86.40;;;;;;5064668;28;19913;-70
2022/03/06 06:46:22;;;;;;;;;;;0.30;86.40;;;;;;5064686;28;19909;-70
2022/03/06 06:48:47;;;;;;;;;;;0.30;86.30;;;;;;5046960;28;19909;-70
2022/03/06 06:51:13;;;;;;;;;;;0.40;86.50;;;;;;5063812;28;19916;-70
2022/03/06 06:53:39;;;;;;;;;;;0.40;86.30;;;;;;5046570;28;19908;-70
2022/03/06 06:56:05;;;;;;;;;;;0.60;85.90;;;;;;5057338;28;19920;-70
2022/03/06 06:58:30;;;;;;;;;;;0.70;85.10;;;;;;5064357;28;19908;-69
2022/03/06 07:00:56;;;;;;;;;;;0.80;84.90;;;;;;5063574;28;19919;-70
2022/03/06 07:03:22;;;;;;;;;;;0.80;85.30;;;;;;5046007;28;19912;-70
2022/03/06 07:05:48;;;;;;;;;;;0.90;84.40;;;;;;5058700;28;19913;-70
2022/03/06 07:08:14;;;;;;;;;;;0.90;84.10;;;;;;5055263;28;19912;-70
2022/03/06 07:10:40;;;;;;;;;;;0.90;84.00;;;;;;5063476;28;20172;-69
2022/03/06 07:13:05;;;;;;;;;;;1.00;84.70;;;;;;5063592;28;19948;-69
2022/03/06 07:15:32;;;;;;;;;;;1.10;83.50;;;;;;5063936;28;19927;-69
2022/03/06 07:18:01;;;;;;;;;;;1.10;82.60;;;;;;5030079;28;19908;-69
2022/03/06 07:20:27;;;;;;;;;;;1.10;82.90;;;;;;5062535;28;19913;-69
2022/03/06 07:22:53;;;;;;;;;;;1.10;82.70;;;;;;5062451;28;20211;-68
2022/03/06 07:25:19;;;;;;;;;;;1.20;82.60;;;;;;5063865;28;19909;-69
2022/03/06 07:27:44;;;;;;;;;;;1.30;82.20;;;;;;5063824;28;19908;-68
2022/03/06 07:30:10;;;;;;;;;;;1.30;82.30;;;;;;5063701;28;19916;-69
2022/03/06 07:32:47;;;;;;;;;;;1.40;81.30;;;;;;5062317;28;19916;-69
2022/03/06 07:35:13;;;;;;;;;;;1.50;81.00;;;;;;5045688;28;19995;-69
2022/03/06 07:37:39;;;;;;;;;;;1.50;81.30;;;;;;5063438;28;20196;-69
2022/03/06 07:40:06;;;;;;;;;;;1.60;80.30;;;;;;5045979;28;19984;-69
2022/03/06 07:42:32;;;;;;;;;;;1.70;80.40;;;;;;5063065;28;19909;-69
2022/03/06 07:44:58;;;;;;;;;;;1.80;79.80;;;;;;5045918;28;19978;-69
2022/03/06 07:47:23;;;;;;;;;;;1.70;80.10;;;;;;5029201;28;19931;-69
2022/03/06 07:49:49;;;;;;;;;;;1.90;79.50;;;;;;5045565;28;19975;-69
2022/03/06 07:52:15;;;;;;;;;;;1.80;79.10;;;;;;5062816;28;19966;-69
2022/03/06 07:54:40;;;;;;;;;;;1.90;78.80;;;;;;5045633;28;19919;-68
2022/03/06 07:57:06;;;;;;;;;;;1.80;79.30;;;;;;5063306;28;19940;-69
2022/03/06 07:59:32;;;;;;;;;;;1.90;79.00;;;;;;5063232;28;19975;-69
2022/03/06 08:01:57;;;;;;;;;;;1.90;79.50;;;;;;5062953;28;20223;-69
2022/03/06 08:04:23;;;;;;;;;;;1.80;79.40;;;;;;5063135;28;19909;-68
2022/03/06 08:06:49;;;;;;;;;;;1.90;79.00;;;;;;5061985;28;19916;-69
2022/03/06 08:09:15;;;;;;;;;;;2.00;78.80;;;;;;5045532;28;19909;-69
2022/03/06 08:11:41;;;;;;;;;;;2.10;78.30;;;;;;5044878;28;19971;-69
2022/03/06 08:14:06;;;;;;;;;;;2.20;77.80;;;;;;5063086;28;20208;-69
2022/03/06 08:16:32;;;;;;;;;;;2.30;78.20;;;;;;5063039;28;20216;-69
2022/03/06 08:18:57;;;;;;;;;;;2.30;78.60;;;;;;5062802;28;19916;-69
2022/03/06 08:21:23;;;;;;;;;;;2.40;78.30;;;;;;5044629;28;20227;-69
2022/03/06 08:23:51;;;;;;;;;;;2.60;77.70;;;;;;5062887;28;19917;-68
2022/03/06 08:26:16;;;;;;;;;;;2.80;76.20;;;;;;5062747;28;19909;-68
2022/03/06 08:28:42;;;;;;;;;;;2.90;76.00;;;;;;5062915;28;19909;-68
2022/03/06 08:31:08;;;;;;;;;;;3.00;75.60;;;;;;5059076;28;19909;-69
2022/03/06 08:33:34;;;;;;;;;;;3.10;74.60;;;;;;5041435;28;19927;-68
2022/03/06 08:36:00;;;;;;;;;;;3.20;74.10;;;;;;5061898;28;19913;-69
2022/03/06 08:38:25;;;;;;;;;;;3.10;73.50;;;;;;5049326;28;20262;-68
2022/03/06 08:40:51;;;;;;;;;;;3.20;74.00;;;;;;5062222;28;19913;-69
2022/03/06 08:43:17;;;;;;;;;;;3.40;73.90;;;;;;5062766;28;19908;-68
2022/03/06 08:45:42;;;;;;;;;;;3.40;72.90;;;;;;5062621;28;19908;-68
2022/03/06 08:48:08;;;;;;;;;;;3.50;72.70;;;;;;5062020;28;19988;-67
2022/03/06 08:50:34;;;;;;;;;;;3.50;71.60;;;;;;5062472;28;20156;-67
2022/03/06 08:52:59;;;;;;;;;;;3.50;72.30;;;;;;5058042;28;19919;-71
2022/03/06 08:55:25;;;;;;;;;;;3.60;72.40;;;;;;5060837;28;19928;-71
2022/03/06 08:57:51;;;;;;;;;;;3.70;71.20;;;;;;5044726;28;20195;-71
2022/03/06 09:00:17;;;;;;;;;;;3.90;70.90;;;;;;5061623;28;19908;-73
2022/03/06 09:02:42;;;;;;;;;;;4.00;69.70;;;;;;5060507;28;19982;-74
2022/03/06 09:05:08;;;;;;;;;;;4.10;70.40;;;;;;5043325;28;20084;-74
2022/03/06 09:07:34;;;;;;;;;;;4.30;69.90;;;;;;5043054;28;19920;-74
2022/03/06 09:10:00;;;;;;;;;;;4.60;68.40;;;;;;5061315;28;19915;-74
2022/03/06 09:12:26;;;;;;;;;;;4.80;67.40;;;;;;5081780;22;20243;-75
2022/03/06 09:14:55;;;;;;;;;;;5.10;61.00;;;;;;5097763;28;19917;-68
2022/03/06 09:17:21;;;;;;;;;;;5.20;61.20;;;;;;5102642;28;19908;-68
2022/03/06 09:19:47;;;;;;;;;;;5.20;59.00;;;;;;5101270;28;20014;-68
2022/03/06 09:22:12;;;;;;;;;;;5.10;59.40;;;;;;5093178;28;19920;-67
2022/03/06 09:24:38;;;;;;;;;;;5.20;57.60;;;;;;5073062;28;19913;-72
2022/03/06 09:27:04;;;;;;;;;;;5.20;51.40;;;;;;5070135;28;20154;-70
2022/03/06 09:29:30;;;;;;;;;;;5.00;54.00;;;;;;5066243;28;20139;-71
2022/03/06 09:31:56;;;;;;;;;;;5.00;53.10;;;;;;5061912;28;19924;-70
2022/03/06 09:34:21;;;;;;;;;;;5.10;51.60;;;;;;5061956;28;19919;-74
2022/03/06 09:36:47;;;;;;;;;;;5.20;52.90;;;;;;5068500;28;19912;-72
2022/03/06 09:39:13;;;;;;;;;;;5.30;50.60;;;;;;5081792;28;20142;-74
2022/03/06 09:41:39;;;;;;;;;;;5.20;48.90;;;;;;5078735;28;19913;-72
2022/03/06 09:44:09;;;;;;;;;;;4.90;48.10;;;;;;5078226;28;19916;-69
2022/03/06 09:46:35;;;;;;;;;;;4.70;49.90;;;;;;5085304;28;19944;-72
2022/03/06 09:49:02;;;;;;;;;;;4.70;50.60;;;;;;5066129;28;19920;-67
2022/03/06 09:51:33;;;;;;;;;;;4.70;50.70;;;;;;5085180;28;19962;-68
2022/03/06 09:53:59;;;;;;;;;;;4.70;49.80;;;;;;5071626;28;19927;-69
2022/03/06 09:56:25;;;;;;;;;;;4.60;47.00;;;;;;5085918;28;20199;-69
2022/03/06 09:58:50;;;;;;;;;;;4.40;47.00;;;;;;5083657;28;19983;-69
2022/03/06 10:01:16;;;;;;;;;;;4.50;47.50;;;;;;5084786;28;19908;-68
2022/03/06 10:03:42;;;;;;;;;;;4.50;47.40;;;;;;5083849;28;19916;-74
2022/03/06 10:06:10;;;;;;;;;;;4.50;48.10;;;;;;5084318;28;19983;-74
2022/03/06 10:08:36;;;;;;;;;;;4.40;48.00;;;;;;5067500;28;20131;-78
2022/03/06 10:11:07;;;;;;;;;;;4.50;48.80;;;;;;5066696;28;20003;-69
2022/03/06 10:13:35;;;;;;;;;;;4.50;48.80;;;;;;5068399;28;19936;-77
2022/03/06 10:16:05;;;;;;;;;;;4.60;48.90;;;;;;5066657;28;19938;-74
2022/03/06 10:18:36;;;;;;;;;;;4.70;48.00;;;;;;5062535;28;19920;-77
2022/03/06 10:21:03;;;;;;;;;;;4.70;47.50;;;;;;5061508;28;20226;-76
2022/03/06 10:23:29;;;;;;;;;;;4.70;47.70;;;;;;5081631;28;19983;-77
2022/03/06 10:26:05;;;;;;;;;;;4.70;48.10;;;;;;5084464;28;19938;-72
2022/03/06 10:28:31;;;;;;;;;;;4.70;48.40;;;;;;5084311;28;19944;-72
2022/03/06 10:31:04;;;;;;;;;;;4.80;49.80;;;;;;5083812;28;20014;-76
2022/03/06 10:33:29;;;;;;;;;;;4.70;48.30;;;;;;5084085;28;19908;-70
2022/03/06 10:35:58;;;;;;;;;;;4.90;48.90;;;;;;5084467;28;19961;-73
2022/03/06 10:38:26;;;;;;;;;;;4.80;48.80;;;;;;5083516;28;19979;-74
2022/03/06 10:40:52;;;;;;;;;;;4.80;48.60;;;;;;5083776;28;19920;-71
2022/03/06 10:43:29;;;;;;;;;;;5.00;48.10;;;;;;5084053;28;19915;-70
2022/03/06 10:46:13;;;;;;;;;;;5.00;47.10;;;;;;5080823;28;19912;-75
2022/03/06 10:48:39;;;;;;;;;;;5.10;47.80;;;;;;5083296;28;19909;-75
2022/03/06 10:51:07;;;;;;;;;;;5.10;47.30;;;;;;5066926;28;19912;-77
2022/03/06 10:53:32;;;;;;;;;;;5.20;47.50;;;;;;5050130;28;19948;-77
2022/03/06 10:56:14;;;;;;;;;;;5.20;47.10;;;;;;5085360;28;19912;-77
2022/03/06 10:58:44;;;;;;;;;;;5.10;47.00;;;;;;5083295;28;19909;-76
2022/03/06 11:01:10;;;;;;;;;;;5.20;48.10;;;;;;5082776;28;19908;-73
2022/03/06 11:03:36;;;;;;;;;;;5.10;47.60;;;;;;5071244;28;19916;-73
2022/03/06 11:06:07;;;;;;;;;;;5.10;46.70;;;;;;5090742;28;19912;-70
2022/03/06 11:08:34;;;;;;;;;;;5.20;47.60;;;;;;5086395;28;20196;-68
2022/03/06 11:10:59;;;;;;;;;;;5.40;50.20;;;;;;5069485;28;19944;-72
2022/03/06 11:13:27;;;;;;;;;;;5.40;48.20;;;;;;5085229;28;19912;-71
2022/03/06 11:15:52;;;;;;;;;;;5.20;47.10;;;;;;5068516;28;19912;-71
2022/03/06 11:18:18;;;;;;;;;;;5.10;45.90;;;;;;5083063;28;19951;-73
2022/03/06 11:20:44;;;;;;;;;;;5.20;46.30;;;;;;5083659;28;19908;-73
2022/03/06 11:23:32;;;;;;;;;;;5.10;47.00;;;;;;5064908;28;19912;-73
2022/03/06 11:26:01;;;;;;;;;;;5.30;46.90;;;;;;5083180;28;19943;-73
2022/03/06 11:28:39;;;;;;;;;;;5.40;46.10;;;;;;5077531;28;19919;-73
2022/03/06 11:31:04;;;;;;;;;;;5.40;46.60;;;;;;5084122;28;19915;-73
2022/03/06 11:33:30;;;;;;;;;;;5.30;45.80;;;;;;5066984;28;19908;-73
2022/03/06 11:35:56;;;;;;;;;;;5.30;45.00;;;;;;5065367;28;19935;-73
2022/03/06 11:38:22;;;;;;;;;;;5.30;43.90;;;;;;5081329;28;19913;-73
2022/03/06 11:40:51;;;;;;;;;;;5.20;45.10;;;;;;5063115;28;19987;-73
2022/03/06 11:43:33;;;;;;;;;;;5.20;45.40;;;;;;5058365;28;19920;-73
2022/03/06 11:45:58;;;;;;;;;;;5.10;45.70;;;;;;5083884;28;19931;-74
2022/03/06 11:48:33;;;;;;;;;;;5.10;46.30;;;;;;5083910;28;20200;-73
2022/03/06 11:51:14;;;;;;;;;;;5.10;46.10;;;;;;5083566;28;19915;-73
2022/03/06 11:53:56;;;;;;;;;;;5.00;45.90;;;;;;5084491;28;19908;-72
2022/03/06 11:56:34;;;;;;;;;;;5.00;46.80;;;;;;5075961;28;20179;-72
2022/03/06 11:59:24;;;;;;;;;;;5.00;46.50;;;;;;5078786;28;19976;-73
2022/03/06 12:01:55;;;;;;;;;;;4.90;46.80;;;;;;5076239;28;20214;-73
2022/03/06 12:04:25;;;;;;;;;;;5.00;47.30;;;;;;5084942;28;19916;-74
2022/03/06 12:06:55;;;;;;;;;;;5.00;47.20;;;;;;5067278;28;19908;-74
2022/03/06 12:09:31;;;;;;;;;;;5.00;46.90;;;;;;5085649;28;19908;-74
2022/03/06 12:12:02;;;;;;;;;;;5.00;47.10;;;;;;5069191;28;19912;-75
2022/03/06 12:14:31;;;;;;;;;;;5.00;47.00;;;;;;5065835;28;19921;-75
2022/03/06 12:17:10;;;;;;;;;;;4.90;47.20;;;;;;5053497;28;19924;-75
2022/03/06 12:19:42;;;;;;;;;;;5.00;46.70;;;;;;5079522;28;19983;-75
2022/03/06 12:22:20;;;;;;;;;;;5.00;47.00;;;;;;5087472;28;19916;-75
2022/03/06 12:25:11;;;;;;;;;;;5.00;47.00;;;;;;5062169;28;20003;-75
2022/03/06 12:28:03;;;;;;;;;;;5.00;46.70;;;;;;5087482;28;19916;-75
2022/03/06 12:30:29;;;;;;;;;;;5.00;46.90;;;;;;5087822;28;19909;-73
2022/03/06 12:32:55;;;;;;;;;;;5.00;46.40;;;;;;5086384;28;19927;-75
2022/03/06 12:35:25;;;;;;;;;;;4.90;46.20;;;;;;5085312;28;19913;-75
2022/03/06 12:37:56;;;;;;;;;;;4.90;46.60;;;;;;5085804;28;19925;-73
2022/03/06 12:40:24;;;;;;;;;;;5.00;46.40;;;;;;5087936;28;19916;-74
2022/03/06 12:42:51;;;;;;;;;;;5.00;46.30;;;;;;5070632;28;19908;-72
2022/03/06 12:45:18;;;;;;;;;;;4.90;46.00;;;;;;5070836;28;19931;-73
2022/03/06 12:47:45;;;;;;;;;;;4.90;46.20;;;;;;5088423;28;19916;-72
2022/03/06 12:50:12;;;;;;;;;;;4.90;47.50;;;;;;5068972;28;19983;-73
2022/03/06 12:52:38;;;;;;;;;;;5.00;46.30;;;;;;5053293;28;19916;-73
2022/03/06 12:55:06;;;;;;;;;;;5.00;46.40;;;;;;5078813;28;19975;-73
2022/03/06 12:57:36;;;;;;;;;;;5.10;45.90;;;;;;5055252;28;19916;-73
2022/03/06 13:00:04;;;;;;;;;;;5.20;45.60;;;;;;5090193;28;19909;-73
2022/03/06 13:02:30;;;;;;;;;;;5.20;45.30;;;;;;5072000;28;19943;-74
2022/03/06 13:04:56;;;;;;;;;;;5.10;45.10;;;;;;5090504;28;19915;-74
2022/03/06 13:07:23;;;;;;;;;;;5.10;44.70;;;;;;5091251;28;19912;-74
2022/03/06 13:09:59;;;;;;;;;;;5.10;45.20;;;;;;5053965;28;19918;-74
2022/03/06 13:12:36;;;;;;;;;;;5.20;46.10;;;;;;5062331;28;19952;-74
2022/03/06 13:15:03;;;;;;;;;;;5.20;45.60;;;;;;5088793;28;19940;-74
2022/03/06 13:17:30;;;;;;;;;;;5.30;45.50;;;;;;5073533;28;19908;-74
2022/03/06 13:19:56;;;;;;;;;;;5.30;46.30;;;;;;5092893;28;20143;-73
2022/03/06 13:22:23;;;;;;;;;;;5.20;46.00;;;;;;5092267;28;19975;-74
2022/03/06 13:24:53;;;;;;;;;;;5.10;46.30;;;;;;5092736;28;19924;-74
2022/03/06 13:27:24;;;;;;;;;;;5.20;46.40;;;;;;5092310;28;19909;-74
2022/03/06 13:30:16;;;;;;;;;;;5.20;46.10;;;;;;5092517;28;19909;-74
2022/03/06 13:32:54;;;;;;;;;;;5.10;44.80;;;;;;5092954;28;19920;-74
2022/03/06 13:35:36;;;;;;;;;;;5.10;44.90;;;;;;5092568;28;19923;-74
2022/03/06 13:38:09;;;;;;;;;;;5.10;46.80;;;;;;5092404;28;19908;-74
2022/03/06 13:40:42;;;;;;;;;;;5.00;45.20;;;;;;5075560;28;19946;-74
2022/03/06 13:43:08;;;;;;;;;;;4.90;45.50;;;;;;5075578;28;20184;-74
2022/03/06 13:45:34;;;;;;;;;;;4.80;45.50;;;;;;5093604;28;20241;-73
2022/03/06 13:48:06;;;;;;;;;;;4.80;45.40;;;;;;5077283;28;19915;-74
2022/03/06 13:50:43;;;;;;;;;;;4.90;45.50;;;;;;5093281;28;19908;-74
2022/03/06 13:53:09;;;;;;;;;;;4.90;45.00;;;;;;5092822;28;19944;-73
2022/03/06 13:55:37;;;;;;;;;;;4.90;45.20;;;;;;5094044;28;19912;-74
2022/03/06 13:58:07;;;;;;;;;;;4.90;44.40;;;;;;5094599;28;19954;-74
2022/03/06 14:00:43;;;;;;;;;;;5.00;44.60;;;;;;5093155;28;19915;-73
2022/03/06 14:03:14;;;;;;;;;;;5.10;44.30;;;;;;5075891;28;19967;-75
2022/03/06 14:05:42;;;;;;;;;;;5.20;45.10;;;;;;5087219;28;19920;-72
2022/03/06 14:08:18;;;;;;;;;;;5.10;45.90;;;;;;5083877;28;20227;-73
2022/03/06 14:10:48;;;;;;;;;;;5.10;46.70;;;;;;5072081;28;19954;-73
2022/03/06 14:13:36;;;;;;;;;;;4.90;47.10;;;;;;5088475;28;19919;-73
2022/03/06 14:16:05;;;;;;;;;;;4.80;47.20;;;;;;5089589;28;19916;-74
2022/03/06 14:18:47;;;;;;;;;;;4.60;47.80;;;;;;5089270;28;19971;-73
2022/03/06 14:21:19;;;;;;;;;;;4.70;48.00;;;;;;5088074;28;19940;-73
2022/03/06 14:23:46;;;;;;;;;;;4.60;47.60;;;;;;5088967;28;20257;-73
2022/03/06 14:26:12;;;;;;;;;;;4.60;48.60;;;;;;5088191;28;19913;-73
2022/03/06 14:28:48;;;;;;;;;;;4.50;47.60;;;;;;5087375;28;19910;-73
2022/03/06 14:31:14;;;;;;;;;;;4.40;48.20;;;;;;5088555;28;19908;-73